Drexel Gardens, Indiana
Current Conditions -  °F | °C
As of 5:54 PM on Thursday 20 Nov 2014 (Local Time) from KIND Reporting Station
Few Clouds Few Clouds  
Wind Chill: 15°   Ceiling: Unl
Heat Index: 26°   Visibility: 10mi
Dew Point: 14°   Wind: 13mph
Humidity: 60%   Direction: 260°W
Pressure: 30.17"   Gusts: NA
Location:  39.7251°N, 86.264°W
Report Text: KIND 202254Z 26011KT 10SM FEW039 M03/M10 A3017 RMK AO2 SLP227 T10331100
Loading
Personal Weather Stations






























Interactive Weather Map New forecast layout! Learn more

10-Day Weather Forecast

Advertisements
Track Severe Weather on mobile